sensor_id;sensor_type;location;lat;lon;timestamp;temperature;humidity
17170;DHT22;8700;48.222;16.342;2023-04-03T00:03:11;7.20;99.90
17170;DHT22;8700;48.222;16.342;2023-04-03T00:06:33;7.40;99.90
17170;DHT22;8700;48.222;16.342;2023-04-03T00:09:54;7.30;99.90
17170;DHT22;8700;48.222;16.342;2023-04-03T00:13:17;7.30;99.90
17170;DHT22;8700;48.222;16.342;2023-04-03T00:16:38;7.30;99.90
17170;DHT22;8700;48.222;16.342;2023-04-03T00:20:00;7.40;99.90
17170;DHT22;8700;48.222;16.342;2023-04-03T00:23:21;7.30;99.90
17170;DHT22;8700;48.222;16.342;2023-04-03T00:26:43;7.10;99.90
17170;DHT22;8700;48.222;16.342;2023-04-03T00:30:08;7.20;99.90
17170;DHT22;8700;48.222;16.342;2023-04-03T00:33:31;7.20;99.90
17170;DHT22;8700;48.222;16.342;2023-04-03T00:36:53;7.20;99.90
17170;DHT22;8700;48.222;16.342;2023-04-03T00:40:15;7.10;99.90
17170;DHT22;8700;48.222;16.342;2023-04-03T00:43:37;7.20;99.90
17170;DHT22;8700;48.222;16.342;2023-04-03T00:47:00;7.20;99.90
17170;DHT22;8700;48.222;16.342;2023-04-03T00:50:21;7.20;99.90
17170;DHT22;8700;48.222;16.342;2023-04-03T00:53:46;7.30;99.90
17170;DHT22;8700;48.222;16.342;2023-04-03T00:57:07;7.30;99.90
17170;DHT22;8700;48.222;16.342;2023-04-03T01:00:29;7.20;99.90
17170;DHT22;8700;48.222;16.342;2023-04-03T01:03:52;7.10;99.90
17170;DHT22;8700;48.222;16.342;2023-04-03T01:07:16;7.10;99.90
17170;DHT22;8700;48.222;16.342;2023-04-03T01:10:37;7.10;99.90
17170;DHT22;8700;48.222;16.342;2023-04-03T01:13:59;7.20;99.90
17170;DHT22;8700;48.222;16.342;2023-04-03T01:17:30;7.10;99.90
17170;DHT22;8700;48.222;16.342;2023-04-03T01:21:40;7.20;99.90
17170;DHT22;8700;48.222;16.342;2023-04-03T01:25:07;7.10;99.90
17170;DHT22;8700;48.222;16.342;2023-04-03T01:28:31;7.10;99.90
17170;DHT22;8700;48.222;16.342;2023-04-03T01:31:55;7.00;99.90
17170;DHT22;8700;48.222;16.342;2023-04-03T01:35:17;7.00;99.90
17170;DHT22;8700;48.222;16.342;2023-04-03T01:38:38;6.90;99.90
17170;DHT22;8700;48.222;16.342;2023-04-03T01:41:59;7.00;99.90
17170;DHT22;8700;48.222;16.342;2023-04-03T01:45:20;7.00;99.90
17170;DHT22;8700;48.222;16.342;2023-04-03T01:48:44;7.00;99.90
17170;DHT22;8700;48.222;16.342;2023-04-03T01:52:06;7.10;99.90
17170;DHT22;8700;48.222;16.342;2023-04-03T01:55:27;7.10;99.90
17170;DHT22;8700;48.222;16.342;2023-04-03T01:58:48;7.10;99.90
17170;DHT22;8700;48.222;16.342;2023-04-03T02:02:10;7.20;99.90
17170;DHT22;8700;48.222;16.342;2023-04-03T02:05:33;7.10;99.90
17170;DHT22;8700;48.222;16.342;2023-04-03T02:08:54;7.10;99.90
17170;DHT22;8700;48.222;16.342;2023-04-03T02:12:16;7.00;99.90
17170;DHT22;8700;48.222;16.342;2023-04-03T02:15:38;6.90;99.90
17170;DHT22;8700;48.222;16.342;2023-04-03T02:18:59;7.00;99.90
17170;DHT22;8700;48.222;16.342;2023-04-03T02:22:22;7.10;99.90
17170;DHT22;8700;48.222;16.342;2023-04-03T02:25:43;7.10;99.90
17170;DHT22;8700;48.222;16.342;2023-04-03T02:29:04;7.10;99.90
17170;DHT22;8700;48.222;16.342;2023-04-03T02:32:25;6.90;99.90
17170;DHT22;8700;48.222;16.342;2023-04-03T02:35:47;6.90;99.90
17170;DHT22;8700;48.222;16.342;2023-04-03T02:39:14;7.00;99.90
17170;DHT22;8700;48.222;16.342;2023-04-03T02:42:35;7.10;99.90
17170;DHT22;8700;48.222;16.342;2023-04-03T02:45:56;7.10;99.90
17170;DHT22;8700;48.222;16.342;2023-04-03T02:49:18;7.10;99.90
17170;DHT22;8700;48.222;16.342;2023-04-03T02:52:39;7.00;99.90
17170;DHT22;8700;48.222;16.342;2023-04-03T02:56:02;7.00;99.90
17170;DHT22;8700;48.222;16.342;2023-04-03T02:59:23;7.00;99.90
17170;DHT22;8700;48.222;16.342;2023-04-03T03:02:45;7.00;99.90
17170;DHT22;8700;48.222;16.342;2023-04-03T03:06:08;7.00;99.90
17170;DHT22;8700;48.222;16.342;2023-04-03T03:09:30;7.00;99.90
17170;DHT22;8700;48.222;16.342;2023-04-03T03:12:52;7.10;99.90
17170;DHT22;8700;48.222;16.342;2023-04-03T03:16:13;7.10;99.90
17170;DHT22;8700;48.222;16.342;2023-04-03T03:19:34;7.10;99.90
17170;DHT22;8700;48.222;16.342;2023-04-03T03:22:56;7.10;99.90
17170;DHT22;8700;48.222;16.342;2023-04-03T03:26:17;7.00;99.90
17170;DHT22;8700;48.222;16.342;2023-04-03T03:29:39;7.20;99.90
17170;DHT22;8700;48.222;16.342;2023-04-03T03:33:01;7.10;99.90
17170;DHT22;8700;48.222;16.342;2023-04-03T03:36:22;7.10;99.90
17170;DHT22;8700;48.222;16.342;2023-04-03T03:39:43;7.00;99.90
17170;DHT22;8700;48.222;16.342;2023-04-03T03:43:04;7.00;99.90
17170;DHT22;8700;48.222;16.342;2023-04-03T03:46:27;7.00;99.90
17170;DHT22;8700;48.222;16.342;2023-04-03T03:49:48;7.10;99.90
17170;DHT22;8700;48.222;16.342;2023-04-03T03:53:09;6.90;99.90
17170;DHT22;8700;48.222;16.342;2023-04-03T03:56:31;6.90;99.90
17170;DHT22;8700;48.222;16.342;2023-04-03T03:59:52;6.90;99.90
17170;DHT22;8700;48.222;16.342;2023-04-03T04:03:15;6.90;99.90
17170;DHT22;8700;48.222;16.342;2023-04-03T04:06:36;7.00;99.90
17170;DHT22;8700;48.222;16.342;2023-04-03T04:09:57;7.10;99.90
17170;DHT22;8700;48.222;16.342;2023-04-03T04:13:18;7.00;99.90
17170;DHT22;8700;48.222;16.342;2023-04-03T04:16:40;7.00;99.90
17170;DHT22;8700;48.222;16.342;2023-04-03T04:20:02;6.90;99.90
17170;DHT22;8700;48.222;16.342;2023-04-03T04:23:25;6.80;99.90
17170;DHT22;8700;48.222;16.342;2023-04-03T04:26:46;6.60;99.90
17170;DHT22;8700;48.222;16.342;2023-04-03T04:30:08;6.60;99.90
17170;DHT22;8700;48.222;16.342;2023-04-03T04:33:30;6.70;99.90
17170;DHT22;8700;48.222;16.342;2023-04-03T04:36:53;6.70;99.90
17170;DHT22;8700;48.222;16.342;2023-04-03T04:40:14;6.70;99.90
17170;DHT22;8700;48.222;16.342;2023-04-03T04:43:36;6.60;99.90
17170;DHT22;8700;48.222;16.342;2023-04-03T04:46:57;6.60;99.90
17170;DHT22;8700;48.222;16.342;2023-04-03T04:50:19;6.60;99.90
17170;DHT22;8700;48.222;16.342;2023-04-03T04:53:42;6.50;99.90
17170;DHT22;8700;48.222;16.342;2023-04-03T04:57:03;6.60;99.90
17170;DHT22;8700;48.222;16.342;2023-04-03T05:00:24;6.50;99.90
17170;DHT22;8700;48.222;16.342;2023-04-03T05:03:46;6.60;99.90
17170;DHT22;8700;48.222;16.342;2023-04-03T05:07:07;6.60;99.90
17170;DHT22;8700;48.222;16.342;2023-04-03T05:10:31;6.70;99.90
17170;DHT22;8700;48.222;16.342;2023-04-03T05:13:52;6.70;99.90
17170;DHT22;8700;48.222;16.342;2023-04-03T05:17:13;6.60;99.90
17170;DHT22;8700;48.222;16.342;2023-04-03T05:20:34;6.70;99.90
17170;DHT22;8700;48.222;16.342;2023-04-03T05:23:56;6.60;99.90
17170;DHT22;8700;48.222;16.342;2023-04-03T05:27:19;6.60;99.90
17170;DHT22;8700;48.222;16.342;2023-04-03T05:30:40;6.60;99.90
17170;DHT22;8700;48.222;16.342;2023-04-03T05:34:02;6.60;99.90
17170;DHT22;8700;48.222;16.342;2023-04-03T05:37:23;6.60;99.90
17170;DHT22;8700;48.222;16.342;2023-04-03T05:40:45;6.70;99.90
17170;DHT22;8700;48.222;16.342;2023-04-03T05:44:07;6.90;99.90
17170;DHT22;8700;48.222;16.342;2023-04-03T05:47:29;6.80;99.90
17170;DHT22;8700;48.222;16.342;2023-04-03T05:50:50;6.90;99.90
17170;DHT22;8700;48.222;16.342;2023-04-03T05:54:16;7.00;99.90
17170;DHT22;8700;48.222;16.342;2023-04-03T05:57:38;7.00;99.90
17170;DHT22;8700;48.222;16.342;2023-04-03T06:01:01;7.00;99.90
17170;DHT22;8700;48.222;16.342;2023-04-03T06:04:22;7.00;99.90
17170;DHT22;8700;48.222;16.342;2023-04-03T06:07:43;6.90;99.90
17170;DHT22;8700;48.222;16.342;2023-04-03T06:11:05;6.80;99.90
17170;DHT22;8700;48.222;16.342;2023-04-03T06:14:28;6.80;99.90
17170;DHT22;8700;48.222;16.342;2023-04-03T06:17:51;6.90;99.90
17170;DHT22;8700;48.222;16.342;2023-04-03T06:21:12;6.80;99.90
17170;DHT22;8700;48.222;16.342;2023-04-03T06:24:33;7.00;99.90
17170;DHT22;8700;48.222;16.342;2023-04-03T06:27:55;7.10;99.90
17170;DHT22;8700;48.222;16.342;2023-04-03T06:31:16;7.00;99.90
17170;DHT22;8700;48.222;16.342;2023-04-03T06:34:39;7.20;99.90
17170;DHT22;8700;48.222;16.342;2023-04-03T06:38:01;7.30;99.90
17170;DHT22;8700;48.222;16.342;2023-04-03T06:41:24;7.30;99.90
17170;DHT22;8700;48.222;16.342;2023-04-03T06:44:46;7.30;99.90
17170;DHT22;8700;48.222;16.342;2023-04-03T06:48:07;7.20;99.90
17170;DHT22;8700;48.222;16.342;2023-04-03T06:51:30;7.20;99.90
17170;DHT22;8700;48.222;16.342;2023-04-03T06:54:51;7.20;99.90
17170;DHT22;8700;48.222;16.342;2023-04-03T06:58:17;7.20;99.90
17170;DHT22;8700;48.222;16.342;2023-04-03T07:01:39;7.20;99.90
17170;DHT22;8700;48.222;16.342;2023-04-03T07:05:03;7.10;99.90
17170;DHT22;8700;48.222;16.342;2023-04-03T07:08:26;7.00;99.90
17170;DHT22;8700;48.222;16.342;2023-04-03T07:11:48;7.10;99.90
17170;DHT22;8700;48.222;16.342;2023-04-03T07:15:10;7.20;99.90
17170;DHT22;8700;48.222;16.342;2023-04-03T07:18:33;7.20;99.90
17170;DHT22;8700;48.222;16.342;2023-04-03T07:21:54;7.40;99.90
17170;DHT22;8700;48.222;16.342;2023-04-03T07:25:17;7.30;99.90
17170;DHT22;8700;48.222;16.342;2023-04-03T07:28:38;7.50;99.90
17170;DHT22;8700;48.222;16.342;2023-04-03T07:32:01;7.60;99.90
17170;DHT22;8700;48.222;16.342;2023-04-03T07:35:22;8.00;99.90
17170;DHT22;8700;48.222;16.342;2023-04-03T07:38:44;8.20;99.90
17170;DHT22;8700;48.222;16.342;2023-04-03T07:42:07;8.40;99.90
17170;DHT22;8700;48.222;16.342;2023-04-03T07:45:29;8.40;99.90
17170;DHT22;8700;48.222;16.342;2023-04-03T07:48:50;8.60;99.90
17170;DHT22;8700;48.222;16.342;2023-04-03T07:52:11;8.70;99.90
17170;DHT22;8700;48.222;16.342;2023-04-03T07:55:34;8.80;99.90
17170;DHT22;8700;48.222;16.342;2023-04-03T07:59:04;8.70;99.90
17170;DHT22;8700;48.222;16.342;2023-04-03T08:02:25;8.80;99.90
17170;DHT22;8700;48.222;16.342;2023-04-03T08:05:48;8.70;99.90
17170;DHT22;8700;48.222;16.342;2023-04-03T08:09:09;8.30;99.90
17170;DHT22;8700;48.222;16.342;2023-04-03T08:12:31;8.20;99.90
17170;DHT22;8700;48.222;16.342;2023-04-03T08:15:54;8.10;99.90
17170;DHT22;8700;48.222;16.342;2023-04-03T08:19:17;8.10;99.90
17170;DHT22;8700;48.222;16.342;2023-04-03T08:22:39;8.00;99.90
17170;DHT22;8700;48.222;16.342;2023-04-03T08:26:06;8.00;99.90
17170;DHT22;8700;48.222;16.342;2023-04-03T08:29:28;8.00;99.90
17170;DHT22;8700;48.222;16.342;2023-04-03T08:32:50;8.10;99.90
17170;DHT22;8700;48.222;16.342;2023-04-03T08:36:17;8.30;99.90
17170;DHT22;8700;48.222;16.342;2023-04-03T08:39:39;8.30;99.90
17170;DHT22;8700;48.222;16.342;2023-04-03T08:43:18;8.40;99.90
17170;DHT22;8700;48.222;16.342;2023-04-03T08:46:57;9.00;99.90
17170;DHT22;8700;48.222;16.342;2023-04-03T08:50:28;9.20;99.30
17170;DHT22;8700;48.222;16.342;2023-04-03T08:53:56;9.50;97.20
17170;DHT22;8700;48.222;16.342;2023-04-03T08:57:23;9.70;97.50
17170;DHT22;8700;48.222;16.342;2023-04-03T09:00:48;9.60;94.00
17170;DHT22;8700;48.222;16.342;2023-04-03T09:04:12;9.00;94.40
17170;DHT22;8700;48.222;16.342;2023-04-03T09:07:43;8.70;96.00
17170;DHT22;8700;48.222;16.342;2023-04-03T09:11:12;9.80;94.60
17170;DHT22;8700;48.222;16.342;2023-04-03T09:14:39;9.40;94.20
17170;DHT22;8700;48.222;16.342;2023-04-03T09:18:06;9.10;93.70
17170;DHT22;8700;48.222;16.342;2023-04-03T09:21:36;9.30;93.00
17170;DHT22;8700;48.222;16.342;2023-04-03T09:25:03;10.80;90.20
17170;DHT22;8700;48.222;16.342;2023-04-03T09:28:28;10.30;90.70
17170;DHT22;8700;48.222;16.342;2023-04-03T09:31:54;10.10;89.10
17170;DHT22;8700;48.222;16.342;2023-04-03T09:35:21;11.50;86.30
17170;DHT22;8700;48.222;16.342;2023-04-03T09:38:43;12.40;82.40
17170;DHT22;8700;48.222;16.342;2023-04-03T09:42:16;13.30;76.00
17170;DHT22;8700;48.222;16.342;2023-04-03T09:45:39;13.30;72.70
17170;DHT22;8700;48.222;16.342;2023-04-03T09:49:02;12.20;73.90
17170;DHT22;8700;48.222;16.342;2023-04-03T09:52:25;12.40;78.60
17170;DHT22;8700;48.222;16.342;2023-04-03T09:55:48;13.70;74.00
17170;DHT22;8700;48.222;16.342;2023-04-03T09:59:15;13.80;69.90
17170;DHT22;8700;48.222;16.342;2023-04-03T10:02:38;12.70;71.50
17170;DHT22;8700;48.222;16.342;2023-04-03T10:05:59;11.70;73.70
17170;DHT22;8700;48.222;16.342;2023-04-03T10:09:23;10.90;75.60
17170;DHT22;8700;48.222;16.342;2023-04-03T10:12:45;10.40;76.70
17170;DHT22;8700;48.222;16.342;2023-04-03T10:16:13;10.10;78.70
17170;DHT22;8700;48.222;16.342;2023-04-03T10:19:40;9.80;78.80
17170;DHT22;8700;48.222;16.342;2023-04-03T10:23:15;9.50;78.70
17170;DHT22;8700;48.222;16.342;2023-04-03T10:26:46;9.40;78.30
17170;DHT22;8700;48.222;16.342;2023-04-03T10:30:21;9.20;79.50
17170;DHT22;8700;48.222;16.342;2023-04-03T10:33:53;8.90;81.80
17170;DHT22;8700;48.222;16.342;2023-04-03T10:37:23;9.00;82.60
17170;DHT22;8700;48.222;16.342;2023-04-03T10:40:52;9.00;83.10
17170;DHT22;8700;48.222;16.342;2023-04-03T10:44:23;9.00;82.00
17170;DHT22;8700;48.222;16.342;2023-04-03T10:47:53;8.90;80.60
17170;DHT22;8700;48.222;16.342;2023-04-03T10:51:24;9.00;79.20
17170;DHT22;8700;48.222;16.342;2023-04-03T10:54:51;8.90;80.40
17170;DHT22;8700;48.222;16.342;2023-04-03T10:58:19;9.00;78.60
17170;DHT22;8700;48.222;16.342;2023-04-03T11:01:45;8.90;78.30
17170;DHT22;8700;48.222;16.342;2023-04-03T11:05:15;8.80;78.00
17170;DHT22;8700;48.222;16.342;2023-04-03T11:08:42;8.80;78.80
17170;DHT22;8700;48.222;16.342;2023-04-03T11:12:11;8.50;79.00
17170;DHT22;8700;48.222;16.342;2023-04-03T11:15:33;8.50;79.50
17170;DHT22;8700;48.222;16.342;2023-04-03T11:18:59;8.30;79.60
17170;DHT22;8700;48.222;16.342;2023-04-03T11:22:24;8.30;79.20
17170;DHT22;8700;48.222;16.342;2023-04-03T11:25:51;8.20;78.60
17170;DHT22;8700;48.222;16.342;2023-04-03T11:29:18;8.40;78.90
17170;DHT22;8700;48.222;16.342;2023-04-03T11:32:54;8.60;78.30
17170;DHT22;8700;48.222;16.342;2023-04-03T11:36:24;8.90;77.10
17170;DHT22;8700;48.222;16.342;2023-04-03T11:39:52;9.10;77.20
17170;DHT22;8700;48.222;16.342;2023-04-03T11:43:25;9.30;75.60
17170;DHT22;8700;48.222;16.342;2023-04-03T11:46:51;8.90;74.60
17170;DHT22;8700;48.222;16.342;2023-04-03T11:50:31;9.20;75.30
17170;DHT22;8700;48.222;16.342;2023-04-03T11:53:52;9.10;73.70
17170;DHT22;8700;48.222;16.342;2023-04-03T11:57:44;9.00;73.40
17170;DHT22;8700;48.222;16.342;2023-04-03T12:01:11;8.50;72.90
17170;DHT22;8700;48.222;16.342;2023-04-03T12:05:26;8.60;74.30
17170;DHT22;8700;48.222;16.342;2023-04-03T12:08:50;8.90;72.60
17170;DHT22;8700;48.222;16.342;2023-04-03T12:12:29;8.70;72.20
17170;DHT22;8700;48.222;16.342;2023-04-03T12:15:52;8.40;73.10
17170;DHT22;8700;48.222;16.342;2023-04-03T12:19:34;8.10;74.50
17170;DHT22;8700;48.222;16.342;2023-04-03T12:23:08;8.40;74.90
17170;DHT22;8700;48.222;16.342;2023-04-03T12:26:34;8.70;74.30
17170;DHT22;8700;48.222;16.342;2023-04-03T12:30:03;8.80;72.00
17170;DHT22;8700;48.222;16.342;2023-04-03T12:33:32;8.80;72.20
17170;DHT22;8700;48.222;16.342;2023-04-03T12:37:06;8.60;70.20
17170;DHT22;8700;48.222;16.342;2023-04-03T12:40:41;8.50;69.10
17170;DHT22;8700;48.222;16.342;2023-04-03T12:44:32;8.70;68.90
17170;DHT22;8700;48.222;16.342;2023-04-03T12:47:56;8.70;69.50
17170;DHT22;8700;48.222;16.342;2023-04-03T12:51:20;8.40;71.20
17170;DHT22;8700;48.222;16.342;2023-04-03T12:54:45;8.30;71.50
17170;DHT22;8700;48.222;16.342;2023-04-03T12:58:14;8.30;71.60
17170;DHT22;8700;48.222;16.342;2023-04-03T13:01:37;8.30;71.60
17170;DHT22;8700;48.222;16.342;2023-04-03T13:04:59;8.50;71.10
17170;DHT22;8700;48.222;16.342;2023-04-03T13:08:21;8.40;70.80
17170;DHT22;8700;48.222;16.342;2023-04-03T13:11:44;8.40;71.20
17170;DHT22;8700;48.222;16.342;2023-04-03T13:15:15;8.50;71.00
17170;DHT22;8700;48.222;16.342;2023-04-03T13:18:38;8.60;69.20
17170;DHT22;8700;48.222;16.342;2023-04-03T13:22:03;8.50;70.10
17170;DHT22;8700;48.222;16.342;2023-04-03T13:25:28;8.40;69.70
17170;DHT22;8700;48.222;16.342;2023-04-03T13:28:52;8.90;69.60
17170;DHT22;8700;48.222;16.342;2023-04-03T13:32:18;9.10;67.70
17170;DHT22;8700;48.222;16.342;2023-04-03T13:35:41;8.90;68.60
17170;DHT22;8700;48.222;16.342;2023-04-03T13:39:05;9.00;67.60
17170;DHT22;8700;48.222;16.342;2023-04-03T13:42:28;8.70;69.00
17170;DHT22;8700;48.222;16.342;2023-04-03T13:49:35;9.00;68.60
17170;DHT22;8700;48.222;16.342;2023-04-03T13:53:02;9.10;68.10
17170;DHT22;8700;48.222;16.342;2023-04-03T13:56:31;9.00;68.40
17170;DHT22;8700;48.222;16.342;2023-04-03T13:59:53;8.90;69.30
17170;DHT22;8700;48.222;16.342;2023-04-03T14:03:19;8.90;69.50
17170;DHT22;8700;48.222;16.342;2023-04-03T14:06:42;8.70;70.10
17170;DHT22;8700;48.222;16.342;2023-04-03T14:10:04;8.60;70.20
17170;DHT22;8700;48.222;16.342;2023-04-03T14:13:25;8.60;69.20
17170;DHT22;8700;48.222;16.342;2023-04-03T14:16:51;8.50;69.50
17170;DHT22;8700;48.222;16.342;2023-04-03T14:20:17;8.40;69.30
17170;DHT22;8700;48.222;16.342;2023-04-03T14:23:40;8.50;68.70
17170;DHT22;8700;48.222;16.342;2023-04-03T14:27:01;8.40;69.50
17170;DHT22;8700;48.222;16.342;2023-04-03T14:30:25;8.20;69.90
17170;DHT22;8700;48.222;16.342;2023-04-03T14:33:47;8.10;71.50
17170;DHT22;8700;48.222;16.342;2023-04-03T14:37:13;8.30;72.00
17170;DHT22;8700;48.222;16.342;2023-04-03T14:40:34;8.50;72.00
17170;DHT22;8700;48.222;16.342;2023-04-03T14:43:55;8.80;72.00
17170;DHT22;8700;48.222;16.342;2023-04-03T14:47:21;8.80;70.60
17170;DHT22;8700;48.222;16.342;2023-04-03T14:50:42;8.80;70.30
17170;DHT22;8700;48.222;16.342;2023-04-03T14:54:05;8.90;69.40
17170;DHT22;8700;48.222;16.342;2023-04-03T14:57:32;8.80;69.60
17170;DHT22;8700;48.222;16.342;2023-04-03T15:00:54;8.70;69.40
17170;DHT22;8700;48.222;16.342;2023-04-03T15:04:16;8.50;68.60
17170;DHT22;8700;48.222;16.342;2023-04-03T15:07:40;8.20;69.10
17170;DHT22;8700;48.222;16.342;2023-04-03T15:11:03;8.30;68.60
17170;DHT22;8700;48.222;16.342;2023-04-03T15:14:26;8.50;68.40
17170;DHT22;8700;48.222;16.342;2023-04-03T15:17:51;8.60;68.40
17170;DHT22;8700;48.222;16.342;2023-04-03T15:21:14;8.50;68.20
17170;DHT22;8700;48.222;16.342;2023-04-03T15:24:36;8.40;68.80
17170;DHT22;8700;48.222;16.342;2023-04-03T15:27:59;8.40;69.50
17170;DHT22;8700;48.222;16.342;2023-04-03T15:31:21;8.70;69.20
17170;DHT22;8700;48.222;16.342;2023-04-03T15:34:42;8.70;68.60
17170;DHT22;8700;48.222;16.342;2023-04-03T15:38:03;8.50;68.70
17170;DHT22;8700;48.222;16.342;2023-04-03T15:41:25;8.60;68.70
17170;DHT22;8700;48.222;16.342;2023-04-03T15:44:47;8.40;67.30
17170;DHT22;8700;48.222;16.342;2023-04-03T15:48:10;8.00;68.30
17170;DHT22;8700;48.222;16.342;2023-04-03T15:51:31;7.80;69.30
17170;DHT22;8700;48.222;16.342;2023-04-03T15:54:53;7.80;69.70
17170;DHT22;8700;48.222;16.342;2023-04-03T15:58:14;7.90;69.00
17170;DHT22;8700;48.222;16.342;2023-04-03T16:01:38;7.90;68.70
17170;DHT22;8700;48.222;16.342;2023-04-03T16:05:00;7.60;69.30
17170;DHT22;8700;48.222;16.342;2023-04-03T16:08:21;7.30;69.60
17170;DHT22;8700;48.222;16.342;2023-04-03T16:11:43;7.40;70.00
17170;DHT22;8700;48.222;16.342;2023-04-03T16:15:05;7.40;69.70
17170;DHT22;8700;48.222;16.342;2023-04-03T16:18:29;7.50;69.50
17170;DHT22;8700;48.222;16.342;2023-04-03T16:21:50;7.40;69.40
17170;DHT22;8700;48.222;16.342;2023-04-03T16:25:12;7.40;69.60
17170;DHT22;8700;48.222;16.342;2023-04-03T16:28:33;7.30;70.90
17170;DHT22;8700;48.222;16.342;2023-04-03T16:31:55;7.40;70.20
17170;DHT22;8700;48.222;16.342;2023-04-03T16:35:21;7.30;69.80
17170;DHT22;8700;48.222;16.342;2023-04-03T16:38:42;7.20;70.60
17170;DHT22;8700;48.222;16.342;2023-04-03T16:42:03;7.20;70.90
17170;DHT22;8700;48.222;16.342;2023-04-03T16:45:28;7.00;70.60
17170;DHT22;8700;48.222;16.342;2023-04-03T16:48:52;7.10;70.30
17170;DHT22;8700;48.222;16.342;2023-04-03T16:52:15;7.20;69.30
17170;DHT22;8700;48.222;16.342;2023-04-03T16:55:36;7.20;69.80
17170;DHT22;8700;48.222;16.342;2023-04-03T16:58:59;7.00;70.00
17170;DHT22;8700;48.222;16.342;2023-04-03T17:02:21;6.90;70.50
17170;DHT22;8700;48.222;16.342;2023-04-03T17:05:46;6.80;71.00
17170;DHT22;8700;48.222;16.342;2023-04-03T17:09:09;7.00;71.30
17170;DHT22;8700;48.222;16.342;2023-04-03T17:12:31;7.00;69.50
17170;DHT22;8700;48.222;16.342;2023-04-03T17:15:52;6.90;69.40
17170;DHT22;8700;48.222;16.342;2023-04-03T17:19:14;6.80;70.30
17170;DHT22;8700;48.222;16.342;2023-04-03T17:22:36;6.70;71.10
17170;DHT22;8700;48.222;16.342;2023-04-03T17:25:59;6.80;71.30
17170;DHT22;8700;48.222;16.342;2023-04-03T17:29:20;6.70;71.20
17170;DHT22;8700;48.222;16.342;2023-04-03T17:32:42;6.60;71.60
17170;DHT22;8700;48.222;16.342;2023-04-03T17:36:03;6.70;71.70
17170;DHT22;8700;48.222;16.342;2023-04-03T17:39:25;6.70;72.10
17170;DHT22;8700;48.222;16.342;2023-04-03T17:42:48;6.70;71.60
17170;DHT22;8700;48.222;16.342;2023-04-03T17:46:10;6.60;72.10
17170;DHT22;8700;48.222;16.342;2023-04-03T17:49:35;6.50;72.40
17170;DHT22;8700;48.222;16.342;2023-04-03T17:52:56;6.50;71.80
17170;DHT22;8700;48.222;16.342;2023-04-03T17:56:19;6.50;72.80
17170;DHT22;8700;48.222;16.342;2023-04-03T17:59:46;6.40;72.40
17170;DHT22;8700;48.222;16.342;2023-04-03T18:03:07;6.40;72.40
17170;DHT22;8700;48.222;16.342;2023-04-03T18:06:31;6.40;72.70
17170;DHT22;8700;48.222;16.342;2023-04-03T18:09:54;6.40;72.70
17170;DHT22;8700;48.222;16.342;2023-04-03T18:13:16;6.20;71.80
17170;DHT22;8700;48.222;16.342;2023-04-03T18:16:38;6.20;72.40
17170;DHT22;8700;48.222;16.342;2023-04-03T18:20:00;6.30;72.00
17170;DHT22;8700;48.222;16.342;2023-04-03T18:23:22;6.30;72.20
17170;DHT22;8700;48.222;16.342;2023-04-03T18:26:47;6.40;72.10
17170;DHT22;8700;48.222;16.342;2023-04-03T18:30:12;6.40;72.30
17170;DHT22;8700;48.222;16.342;2023-04-03T18:33:35;6.20;72.50
17170;DHT22;8700;48.222;16.342;2023-04-03T18:36:57;6.20;72.90
17170;DHT22;8700;48.222;16.342;2023-04-03T18:40:18;6.30;72.90
17170;DHT22;8700;48.222;16.342;2023-04-03T18:43:40;6.30;73.20
17170;DHT22;8700;48.222;16.342;2023-04-03T18:47:01;6.30;73.50
17170;DHT22;8700;48.222;16.342;2023-04-03T18:50:24;6.20;73.90
17170;DHT22;8700;48.222;16.342;2023-04-03T18:53:45;6.20;74.50
17170;DHT22;8700;48.222;16.342;2023-04-03T18:57:06;6.20;74.50
17170;DHT22;8700;48.222;16.342;2023-04-03T19:00:28;6.20;75.20
17170;DHT22;8700;48.222;16.342;2023-04-03T19:03:49;6.20;74.70
17170;DHT22;8700;48.222;16.342;2023-04-03T19:07:12;6.20;74.70
17170;DHT22;8700;48.222;16.342;2023-04-03T19:10:33;6.20;75.20
17170;DHT22;8700;48.222;16.342;2023-04-03T19:13:55;6.00;74.90
17170;DHT22;8700;48.222;16.342;2023-04-03T19:17:16;6.10;75.20
17170;DHT22;8700;48.222;16.342;2023-04-03T19:20:37;6.00;75.30
17170;DHT22;8700;48.222;16.342;2023-04-03T19:23:59;6.00;74.80
17170;DHT22;8700;48.222;16.342;2023-04-03T19:27:21;6.00;74.40
17170;DHT22;8700;48.222;16.342;2023-04-03T19:30:42;6.00;74.70
17170;DHT22;8700;48.222;16.342;2023-04-03T19:34:07;6.00;74.50
17170;DHT22;8700;48.222;16.342;2023-04-03T19:37:28;6.00;74.70
17170;DHT22;8700;48.222;16.342;2023-04-03T19:40:51;6.00;74.60
17170;DHT22;8700;48.222;16.342;2023-04-03T19:44:12;6.00;73.90
17170;DHT22;8700;48.222;16.342;2023-04-03T19:47:34;6.00;74.30
17170;DHT22;8700;48.222;16.342;2023-04-03T19:50:56;6.00;74.00
17170;DHT22;8700;48.222;16.342;2023-04-03T19:54:19;6.00;74.20
17170;DHT22;8700;48.222;16.342;2023-04-03T19:57:42;6.00;74.30
17170;DHT22;8700;48.222;16.342;2023-04-03T20:01:03;5.90;74.30
17170;DHT22;8700;48.222;16.342;2023-04-03T20:04:25;5.90;75.30
17170;DHT22;8700;48.222;16.342;2023-04-03T20:07:46;6.00;73.70
17170;DHT22;8700;48.222;16.342;2023-04-03T20:11:08;5.90;73.70
17170;DHT22;8700;48.222;16.342;2023-04-03T20:14:31;5.90;74.20
17170;DHT22;8700;48.222;16.342;2023-04-03T20:17:52;5.90;74.70
17170;DHT22;8700;48.222;16.342;2023-04-03T20:21:13;5.90;74.80
17170;DHT22;8700;48.222;16.342;2023-04-03T20:24:37;5.90;75.30
17170;DHT22;8700;48.222;16.342;2023-04-03T20:27:59;5.80;75.30
17170;DHT22;8700;48.222;16.342;2023-04-03T20:31:22;5.70;75.40
17170;DHT22;8700;48.222;16.342;2023-04-03T20:34:44;5.80;75.40
17170;DHT22;8700;48.222;16.342;2023-04-03T20:38:06;5.80;75.10
17170;DHT22;8700;48.222;16.342;2023-04-03T20:41:27;5.80;75.10
17170;DHT22;8700;48.222;16.342;2023-04-03T20:44:48;5.80;75.50
17170;DHT22;8700;48.222;16.342;2023-04-03T20:48:11;5.80;75.60
17170;DHT22;8700;48.222;16.342;2023-04-03T20:51:33;5.80;75.30
17170;DHT22;8700;48.222;16.342;2023-04-03T20:54:55;5.80;75.40
17170;DHT22;8700;48.222;16.342;2023-04-03T20:58:16;5.90;75.40
17170;DHT22;8700;48.222;16.342;2023-04-03T21:01:38;5.80;75.80
17170;DHT22;8700;48.222;16.342;2023-04-03T21:05:03;5.80;75.60
17170;DHT22;8700;48.222;16.342;2023-04-03T21:19:44;5.60;76.20
17170;DHT22;8700;48.222;16.342;2023-04-03T21:23:06;5.60;76.10
17170;DHT22;8700;48.222;16.342;2023-04-03T21:26:27;5.70;76.90
17170;DHT22;8700;48.222;16.342;2023-04-03T21:29:48;5.60;76.80
17170;DHT22;8700;48.222;16.342;2023-04-03T21:33:11;5.60;77.40
17170;DHT22;8700;48.222;16.342;2023-04-03T21:36:40;5.60;76.80
17170;DHT22;8700;48.222;16.342;2023-04-03T21:40:01;5.60;76.60
17170;DHT22;8700;48.222;16.342;2023-04-03T21:43:23;5.60;76.10
17170;DHT22;8700;48.222;16.342;2023-04-03T21:46:45;5.40;77.60
17170;DHT22;8700;48.222;16.342;2023-04-03T21:50:08;5.50;77.80
17170;DHT22;8700;48.222;16.342;2023-04-03T21:53:30;5.50;77.60
17170;DHT22;8700;48.222;16.342;2023-04-03T21:56:52;5.40;77.90
17170;DHT22;8700;48.222;16.342;2023-04-03T22:00:13;5.40;78.20
17170;DHT22;8700;48.222;16.342;2023-04-03T22:03:37;5.50;77.30